Time;durP1;ratioP1;P1;durP2;ratioP2;P2;SDS_P1;SDS_P2;PMS_P1;PMS_P2;Temp;Humidity;BMP_temperature;BMP_pressure;BME280_temperature;BME280_humidity;BME280_pressure;Samples;Min_cycle;Max_cycle;Signal;HPM_P1;HPM_P2
2023/04/12 00:00:17;;;;;;;6.53;3.45;;;;;;;;;;5016911;28;20099;-52
2023/04/12 00:02:43;;;;;;;7.60;3.50;;;;;;;;;;5016192;28;20017;-54
2023/04/12 00:05:10;;;;;;;8.25;3.50;;;;;;;;;;5013733;28;20046;-54
2023/04/12 00:07:37;;;;;;;6.70;3.80;;;;;;;;;;5016011;28;20038;-54
2023/04/12 00:10:03;;;;;;;7.53;3.15;;;;;;;;;;5012929;28;20030;-55
2023/04/12 00:12:29;;;;;;;11.35;3.50;;;;;;;;;;4999998;28;20076;-50
2023/04/12 00:14:54;;;;;;;9.00;4.32;;;;;;;;;;5005734;28;20045;-53
2023/04/12 00:17:20;;;;;;;10.75;3.90;;;;;;;;;;5002755;28;20033;-49
2023/04/12 00:19:46;;;;;;;10.48;4.05;;;;;;;;;;5013264;28;20084;-56
2023/04/12 00:22:11;;;;;;;8.73;3.78;;;;;;;;;;5010941;28;20064;-55
2023/04/12 00:24:38;;;;;;;13.88;3.72;;;;;;;;;;5016232;28;20033;-54
2023/04/12 00:27:04;;;;;;;11.13;3.65;;;;;;;;;;5016067;28;20029;-53
2023/04/12 00:29:30;;;;;;;10.38;3.90;;;;;;;;;;5013424;28;20466;-55
2023/04/12 00:31:56;;;;;;;7.75;4.13;;;;;;;;;;5014230;28;20087;-52
2023/04/12 00:34:21;;;;;;;10.05;4.18;;;;;;;;;;5014899;28;20068;-54
2023/04/12 00:36:47;;;;;;;8.77;3.85;;;;;;;;;;4981478;28;20737;-53
2023/04/12 00:39:12;;;;;;;9.60;3.55;;;;;;;;;;4997800;28;20086;-55
2023/04/12 00:41:37;;;;;;;8.82;3.40;;;;;;;;;;5004499;28;20036;-52
2023/04/12 00:44:03;;;;;;;7.53;3.40;;;;;;;;;;4999331;28;20033;-53
2023/04/12 00:46:29;;;;;;;9.88;3.53;;;;;;;;;;4999585;28;20084;-54
2023/04/12 00:48:55;;;;;;;5.43;2.90;;;;;;;;;;5013537;28;20032;-56
2023/04/12 00:51:24;;;;;;;;;;;;;;;;;;5011586;28;20033;-56
2023/04/12 00:53:52;;;;;;;7.43;2.80;;;;;;;;;;5004074;28;20313;-55
2023/04/12 00:56:18;;;;;;;10.48;3.20;;;;;;;;;;5004518;28;20116;-47
2023/04/12 00:58:44;;;;;;;6.20;3.28;;;;;;;;;;4999896;28;20125;-53
2023/04/12 01:01:09;;;;;;;6.65;2.90;;;;;;;;;;5003927;28;20044;-55
2023/04/12 01:03:41;;;;;;;8.57;3.25;;;;;;;;;;5013577;28;20112;-47
2023/04/12 01:06:28;;;;;;;6.13;2.97;;;;;;;;;;5009062;23;20129;-54
2023/04/12 01:09:19;;;;;;;8.60;3.35;;;;;;;;;;4992679;28;20037;-54
2023/04/12 01:11:50;;;;;;;5.72;2.75;;;;;;;;;;5023936;28;20553;-54
2023/04/12 01:14:27;;;;;;;8.32;3.05;;;;;;;;;;5012920;28;20083;-52
2023/04/12 01:16:56;;;;;;;7.40;3.03;;;;;;;;;;5019093;28;20414;-54
2023/04/12 01:19:35;;;;;;;9.60;3.22;;;;;;;;;;5018871;28;20051;-53
2023/04/12 01:22:20;;;;;;;8.77;2.75;;;;;;;;;;5012647;28;20125;-53
2023/04/12 01:24:54;;;;;;;9.20;2.78;;;;;;;;;;5019403;28;20033;-53
2023/04/12 01:27:49;;;;;;;7.55;2.67;;;;;;;;;;5011443;28;20041;-56
2023/04/12 01:30:18;;;;;;;4.95;2.75;;;;;;;;;;4999700;28;20045;-56
2023/04/12 01:32:46;;;;;;;8.70;2.67;;;;;;;;;;5017661;28;20060;-55
2023/04/12 01:35:12;;;;;;;9.25;2.60;;;;;;;;;;5011726;28;20030;-55
2023/04/12 01:37:40;;;;;;;7.47;2.80;;;;;;;;;;5012748;28;20034;-54
2023/04/12 01:40:07;;;;;;;6.60;2.67;;;;;;;;;;5012573;28;20032;-52
2023/04/12 01:42:33;;;;;;;6.65;2.78;;;;;;;;;;5018873;28;20141;-54
2023/04/12 01:44:59;;;;;;;6.10;2.50;;;;;;;;;;5014069;28;20121;-52
2023/04/12 01:47:24;;;;;;;8.68;2.90;;;;;;;;;;5011330;28;20037;-54
2023/04/12 01:50:02;;;;;;;8.45;2.65;;;;;;;;;;5009050;28;20026;-52
2023/04/12 01:52:29;;;;;;;6.22;2.30;;;;;;;;;;5014677;28;20034;-51
2023/04/12 01:54:56;;;;;;;5.30;2.70;;;;;;;;;;5015840;28;20042;-53
2023/04/12 01:57:22;;;;;;;4.70;2.72;;;;;;;;;;5012909;28;20046;-53
2023/04/12 01:59:49;;;;;;;5.53;2.30;;;;;;;;;;5026738;28;20037;-54
2023/04/12 02:02:15;;;;;;;8.05;2.80;;;;;;;;;;5012663;28;20029;-50
2023/04/12 02:04:41;;;;;;;6.20;2.97;;;;;;;;;;5013661;28;20053;-54
2023/04/12 02:07:08;;;;;;;7.93;2.83;;;;;;;;;;5014957;28;20065;-54
2023/04/12 02:09:37;;;;;;;10.55;3.30;;;;;;;;;;5011599;28;20358;-54
2023/04/12 02:12:03;;;;;;;8.73;2.75;;;;;;;;;;5010824;28;20030;-55
2023/04/12 02:14:30;;;;;;;6.22;2.90;;;;;;;;;;5012690;28;21285;-53
2023/04/12 02:16:57;;;;;;;9.00;3.33;;;;;;;;;;5013431;28;20037;-53
2023/04/12 02:19:23;;;;;;;9.13;2.72;;;;;;;;;;5012432;28;20034;-53
2023/04/12 02:21:49;;;;;;;9.48;3.22;;;;;;;;;;5012422;28;20044;-50
2023/04/12 02:24:14;;;;;;;8.93;3.10;;;;;;;;;;5012564;28;20089;-54
2023/04/12 02:26:40;;;;;;;11.77;3.08;;;;;;;;;;5011867;28;20030;-53
2023/04/12 02:29:07;;;;;;;8.38;3.00;;;;;;;;;;5014527;28;20501;-52
2023/04/12 02:31:34;;;;;;;7.30;2.90;;;;;;;;;;5017366;28;20690;-56
2023/04/12 02:34:00;;;;;;;7.97;2.97;;;;;;;;;;5016693;28;20061;-55
2023/04/12 02:36:25;;;;;;;9.98;3.70;;;;;;;;;;5032113;28;20163;-55
2023/04/12 02:38:51;;;;;;;11.77;3.40;;;;;;;;;;5016139;28;20036;-55
2023/04/12 02:41:17;;;;;;;9.30;3.42;;;;;;;;;;5017403;28;20029;-54
2023/04/12 02:43:43;;;;;;;7.47;2.90;;;;;;;;;;5017170;28;20030;-56
2023/04/12 02:46:08;;;;;;;8.85;3.35;;;;;;;;;;5015753;28;20025;-52
2023/04/12 02:48:44;;;;;;;8.43;3.33;;;;;;;;;;5017349;28;20053;-55
2023/04/12 02:51:10;;;;;;;7.50;3.00;;;;;;;;;;5014572;28;20072;-55
2023/04/12 02:53:37;;;;;;;7.95;3.08;;;;;;;;;;5023856;28;20278;-52
2023/04/12 02:56:11;;;;;;;8.10;2.97;;;;;;;;;;5012154;28;20029;-53
2023/04/12 02:58:37;;;;;;;8.60;3.10;;;;;;;;;;5012969;28;20510;-54
2023/04/12 03:01:06;;;;;;;10.48;3.22;;;;;;;;;;5015274;28;20034;-56
2023/04/12 03:03:34;;;;;;;5.57;2.78;;;;;;;;;;5015039;28;20045;-57
2023/04/12 03:06:10;;;;;;;7.63;2.78;;;;;;;;;;5014907;28;20033;-58
2023/04/12 03:08:37;;;;;;;7.30;3.28;;;;;;;;;;5018711;28;20037;-57
2023/04/12 03:11:02;;;;;;;6.82;3.17;;;;;;;;;;5015076;28;20478;-57
2023/04/12 03:13:27;;;;;;;7.53;3.00;;;;;;;;;;5014072;28;20029;-55
2023/04/12 03:15:55;;;;;;;8.60;3.25;;;;;;;;;;5018723;28;20087;-54
2023/04/12 03:18:22;;;;;;;8.57;2.80;;;;;;;;;;5022278;28;21751;-53
2023/04/12 03:20:51;;;;;;;5.65;2.70;;;;;;;;;;5014401;28;20030;-53
2023/04/12 03:23:17;;;;;;;5.85;2.38;;;;;;;;;;5016619;28;20573;-53
2023/04/12 03:25:46;;;;;;;6.93;2.60;;;;;;;;;;5017805;28;20430;-54
2023/04/12 03:28:28;;;;;;;8.43;2.63;;;;;;;;;;5014351;28;20033;-54
2023/04/12 03:30:53;;;;;;;8.65;2.67;;;;;;;;;;5012275;28;20466;-56
2023/04/12 03:33:21;;;;;;;7.38;2.63;;;;;;;;;;5020738;28;20034;-55
2023/04/12 03:35:48;;;;;;;8.47;2.70;;;;;;;;;;5015553;28;20025;-55
2023/04/12 03:38:14;;;;;;;5.93;2.45;;;;;;;;;;5020791;28;20041;-53
2023/04/12 03:40:41;;;;;;;4.88;2.38;;;;;;;;;;5019177;28;20030;-56
2023/04/12 03:43:06;;;;;;;7.45;2.63;;;;;;;;;;5016228;28;20095;-53
2023/04/12 03:45:32;;;;;;;6.50;2.45;;;;;;;;;;5015592;28;20116;-54
2023/04/12 03:48:00;;;;;;;6.03;2.17;;;;;;;;;;4999392;28;20467;-54
2023/04/12 03:50:28;;;;;;;6.35;2.38;;;;;;;;;;5016701;28;20430;-55
2023/04/12 03:52:54;;;;;;;6.28;2.45;;;;;;;;;;5015267;28;20045;-53
2023/04/12 03:55:22;;;;;;;5.47;2.30;;;;;;;;;;5019046;28;20124;-51
2023/04/12 03:57:50;;;;;;;6.07;2.67;;;;;;;;;;5014237;28;20706;-57
2023/04/12 04:00:17;;;;;;;5.10;2.25;;;;;;;;;;5014137;28;20030;-56
2023/04/12 04:03:06;;;;;;;5.55;2.42;;;;;;;;;;5017905;28;20124;-56
2023/04/12 04:05:38;;;;;;;5.13;2.42;;;;;;;;;;5017066;28;20030;-54
2023/04/12 04:08:05;;;;;;;5.35;2.53;;;;;;;;;;4998785;28;20111;-54
2023/04/12 04:10:39;;;;;;;7.28;2.58;;;;;;;;;;5013961;28;20482;-52
2023/04/12 04:13:04;;;;;;;4.65;2.25;;;;;;;;;;5015357;28;20097;-52
2023/04/12 04:15:31;;;;;;;6.88;2.75;;;;;;;;;;5011793;28;20033;-52
2023/04/12 04:17:57;;;;;;;6.73;2.50;;;;;;;;;;5022469;28;20549;-52
2023/04/12 04:20:23;;;;;;;7.32;2.50;;;;;;;;;;5015887;28;20410;-53
2023/04/12 04:22:52;;;;;;;5.97;2.92;;;;;;;;;;5013522;28;20628;-55
2023/04/12 04:25:18;;;;;;;4.65;2.30;;;;;;;;;;5020294;28;20040;-52
2023/04/12 04:27:49;;;;;;;3.90;2.40;;;;;;;;;;5015607;28;20478;-54
2023/04/12 04:30:15;;;;;;;7.57;2.55;;;;;;;;;;5014335;28;20064;-51
2023/04/12 04:32:44;;;;;;;6.40;2.50;;;;;;;;;;5016929;28;20026;-58
2023/04/12 04:35:15;;;;;;;4.18;2.30;;;;;;;;;;5014303;28;20034;-56
2023/04/12 04:37:53;;;;;;;7.50;2.47;;;;;;;;;;5020258;28;20042;-56
2023/04/12 04:40:20;;;;;;;6.10;2.45;;;;;;;;;;5019700;28;20033;-54
2023/04/12 04:42:53;;;;;;;5.13;2.40;;;;;;;;;;5010894;28;20084;-51
2023/04/12 04:45:26;;;;;;;7.28;2.80;;;;;;;;;;5014666;28;20458;-55
2023/04/12 04:47:55;;;;;;;4.28;2.60;;;;;;;;;;5014350;28;20117;-54
2023/04/12 04:50:22;;;;;;;4.47;2.45;;;;;;;;;;5020653;28;20066;-55
2023/04/12 04:52:49;;;;;;;6.57;2.78;;;;;;;;;;5015423;28;20536;-53
2023/04/12 04:55:16;;;;;;;4.82;2.72;;;;;;;;;;5014493;28;20116;-51
2023/04/12 04:57:43;;;;;;;7.40;3.08;;;;;;;;;;5015928;28;20515;-54
2023/04/12 05:00:10;;;;;;;6.75;2.65;;;;;;;;;;5011444;28;20715;-54
2023/04/12 05:02:38;;;;;;;7.15;2.85;;;;;;;;;;5018555;28;20040;-53
2023/04/12 05:05:05;;;;;;;6.00;2.65;;;;;;;;;;5012662;28;20085;-54
2023/04/12 05:07:31;;;;;;;7.43;2.45;;;;;;;;;;5011861;28;20057;-57
2023/04/12 05:09:57;;;;;;;6.28;2.67;;;;;;;;;;5009142;28;20064;-55
2023/04/12 05:12:22;;;;;;;5.72;2.40;;;;;;;;;;5019280;28;20037;-49
2023/04/12 05:14:51;;;;;;;5.50;3.10;;;;;;;;;;4999354;28;20118;-52
2023/04/12 05:17:16;;;;;;;7.72;2.70;;;;;;;;;;5012818;28;20034;-49
2023/04/12 05:19:43;;;;;;;6.57;2.75;;;;;;;;;;5013433;28;20025;-52
2023/04/12 05:22:09;;;;;;;5.93;2.70;;;;;;;;;;5020356;28;20029;-56
2023/04/12 05:24:34;;;;;;;7.25;2.45;;;;;;;;;;5012899;28;20030;-53
2023/04/12 05:26:59;;;;;;;5.82;2.90;;;;;;;;;;4998043;28;20088;-54
2023/04/12 05:29:24;;;;;;;6.72;2.63;;;;;;;;;;5014013;28;20033;-56
2023/04/12 05:31:50;;;;;;;6.85;3.03;;;;;;;;;;5014132;28;20091;-52
2023/04/12 05:34:18;;;;;;;7.85;3.42;;;;;;;;;;5013789;28;20470;-52
2023/04/12 05:36:50;;;;;;;3.85;2.50;;;;;;;;;;5012505;28;20385;-52
2023/04/12 05:39:16;;;;;;;6.50;2.90;;;;;;;;;;5019543;28;20102;-56
2023/04/12 05:41:41;;;;;;;4.50;2.00;;;;;;;;;;5000083;28;20520;-57
2023/04/12 05:44:06;;;;;;;6.03;2.42;;;;;;;;;;5011446;28;20046;-54
2023/04/12 05:46:35;;;;;;;5.30;2.45;;;;;;;;;;5013822;28;20609;-54
2023/04/12 05:49:01;;;;;;;5.70;2.20;;;;;;;;;;5026116;28;20033;-56
2023/04/12 05:51:27;;;;;;;4.38;2.20;;;;;;;;;;5013613;28;20124;-53
2023/04/12 05:53:53;;;;;;;5.10;2.50;;;;;;;;;;5015359;28;20129;-57
2023/04/12 05:56:18;;;;;;;3.40;2.35;;;;;;;;;;4999299;28;20446;-52
2023/04/12 05:58:44;;;;;;;4.53;2.58;;;;;;;;;;5020373;28;20547;-55
2023/04/12 06:01:09;;;;;;;5.40;2.47;;;;;;;;;;5012378;28;20119;-52
2023/04/12 06:03:40;;;;;;;4.00;2.30;;;;;;;;;;5015040;28;20080;-53
2023/04/12 06:06:07;;;;;;;5.70;2.50;;;;;;;;;;5016811;28;20048;-55
2023/04/12 06:08:33;;;;;;;4.55;2.38;;;;;;;;;;5019187;28;20029;-54
2023/04/12 06:10:59;;;;;;;5.28;2.40;;;;;;;;;;5016287;28;20386;-53
2023/04/12 06:13:25;;;;;;;5.70;2.67;;;;;;;;;;5024033;28;20041;-50
2023/04/12 06:15:51;;;;;;;5.63;2.50;;;;;;;;;;5027178;28;20043;-52
2023/04/12 06:18:16;;;;;;;6.32;2.60;;;;;;;;;;5019480;28;20065;-52
2023/04/12 06:20:43;;;;;;;9.07;2.78;;;;;;;;;;5024721;28;20966;-55
2023/04/12 06:23:09;;;;;;;4.75;2.10;;;;;;;;;;5016876;28;20034;-53
2023/04/12 06:25:36;;;;;;;4.43;2.40;;;;;;;;;;5018586;28;20041;-52
2023/04/12 06:28:02;;;;;;;6.50;2.50;;;;;;;;;;5025002;28;20160;-56
2023/04/12 06:30:28;;;;;;;4.05;2.50;;;;;;;;;;5021009;28;20121;-50
2023/04/12 06:32:53;;;;;;;4.03;2.35;;;;;;;;;;5016482;28;20541;-51
2023/04/12 06:35:20;;;;;;;4.20;2.70;;;;;;;;;;5016989;28;20042;-52
2023/04/12 06:37:46;;;;;;;6.18;2.55;;;;;;;;;;5014251;28;20112;-54
2023/04/12 06:40:11;;;;;;;4.50;2.53;;;;;;;;;;5015425;28;20383;-51
2023/04/12 06:42:37;;;;;;;3.55;2.40;;;;;;;;;;5015678;28;20030;-53
2023/04/12 06:45:02;;;;;;;6.25;2.30;;;;;;;;;;5018455;28;20113;-55
2023/04/12 06:47:28;;;;;;;4.97;2.42;;;;;;;;;;5015589;28;20033;-52
2023/04/12 06:49:55;;;;;;;7.60;2.50;;;;;;;;;;5017282;28;20120;-56
2023/04/12 06:52:25;;;;;;;6.70;2.50;;;;;;;;;;5014544;28;20044;-59
2023/04/12 06:54:50;;;;;;;5.45;2.85;;;;;;;;;;5023458;28;20041;-52
2023/04/12 06:57:16;;;;;;;7.25;2.80;;;;;;;;;;5016298;28;20042;-56
2023/04/12 06:59:41;;;;;;;4.55;2.45;;;;;;;;;;5018352;28;20025;-54
2023/04/12 07:02:06;;;;;;;4.25;2.55;;;;;;;;;;5024154;28;20105;-53
2023/04/12 07:04:32;;;;;;;5.40;2.55;;;;;;;;;;5018824;28;20496;-55
2023/04/12 07:06:57;;;;;;;4.00;2.15;;;;;;;;;;5019278;28;20073;-55
2023/04/12 07:09:22;;;;;;;6.43;2.25;;;;;;;;;;5017823;28;20422;-51
2023/04/12 07:11:48;;;;;;;4.00;2.10;;;;;;;;;;5018593;28;20088;-54
2023/04/12 07:14:13;;;;;;;6.35;2.22;;;;;;;;;;5018947;28;20037;-57
2023/04/12 07:16:38;;;;;;;3.88;1.92;;;;;;;;;;5016787;28;20793;-56
2023/04/12 07:19:04;;;;;;;4.22;2.22;;;;;;;;;;5017786;28;20037;-55
2023/04/12 07:21:29;;;;;;;3.58;2.30;;;;;;;;;;5014031;28;20072;-56
2023/04/12 07:23:54;;;;;;;4.85;2.42;;;;;;;;;;5022825;28;20120;-54
2023/04/12 07:26:20;;;;;;;2.63;1.95;;;;;;;;;;5014632;28;20076;-55
2023/04/12 07:28:45;;;;;;;4.68;2.65;;;;;;;;;;5016178;28;20049;-55
2023/04/12 07:31:11;;;;;;;3.08;2.10;;;;;;;;;;5017489;28;20025;-55
2023/04/12 07:33:36;;;;;;;3.78;2.20;;;;;;;;;;5017091;28;20445;-53
2023/04/12 07:36:03;;;;;;;3.70;1.92;;;;;;;;;;5014799;28;20394;-59
2023/04/12 07:38:28;;;;;;;3.60;2.20;;;;;;;;;;5017680;28;20041;-55
2023/04/12 07:40:54;;;;;;;3.10;2.08;;;;;;;;;;5016788;28;20117;-54
2023/04/12 07:43:19;;;;;;;5.50;2.33;;;;;;;;;;5016340;28;20073;-55
2023/04/12 07:45:44;;;;;;;4.30;2.30;;;;;;;;;;5016051;28;20109;-56
2023/04/12 07:48:10;;;;;;;5.57;2.60;;;;;;;;;;5013080;28;20125;-53
2023/04/12 07:50:37;;;;;;;5.07;2.50;;;;;;;;;;5015498;28;20065;-53
2023/04/12 07:53:19;;;;;;;4.28;2.35;;;;;;;;;;5015066;28;20033;-56
2023/04/12 07:55:45;;;;;;;7.53;3.88;;;;;;;;;;5012880;28;20074;-53
2023/04/12 07:58:10;;;;;;;10.73;5.97;;;;;;;;;;5014164;28;20073;-55
2023/04/12 08:00:35;;;;;;;5.05;2.72;;;;;;;;;;5017324;28;20033;-53
2023/04/12 08:03:01;;;;;;;3.60;2.42;;;;;;;;;;5015852;28;20034;-54
2023/04/12 08:05:26;;;;;;;4.07;2.72;;;;;;;;;;5019020;28;20045;-54
2023/04/12 08:07:51;;;;;;;3.88;2.40;;;;;;;;;;5016188;28;20045;-54
2023/04/12 08:10:16;;;;;;;4.63;2.45;;;;;;;;;;5021791;28;20061;-55
2023/04/12 08:12:42;;;;;;;4.80;2.60;;;;;;;;;;5015447;28;20381;-52
2023/04/12 08:15:08;;;;;;;3.90;2.60;;;;;;;;;;5014602;28;20033;-50
2023/04/12 08:17:33;;;;;;;4.72;3.03;;;;;;;;;;5017046;28;20095;-53
2023/04/12 08:19:58;;;;;;;4.80;2.65;;;;;;;;;;5015442;28;20030;-54
2023/04/12 08:22:24;;;;;;;3.53;2.30;;;;;;;;;;5015485;28;20056;-56
2023/04/12 08:24:50;;;;;;;5.35;2.50;;;;;;;;;;5022817;28;20140;-56
2023/04/12 08:27:16;;;;;;;3.13;2.13;;;;;;;;;;5015479;28;20719;-56
2023/04/12 08:29:41;;;;;;;4.80;2.03;;;;;;;;;;5015598;28;20139;-56
2023/04/12 08:32:08;;;;;;;6.68;2.13;;;;;;;;;;5012923;28;20037;-55
2023/04/12 08:34:33;;;;;;;4.40;2.17;;;;;;;;;;5013779;28;20037;-56
2023/04/12 08:36:59;;;;;;;4.90;2.20;;;;;;;;;;5010205;28;20079;-55
2023/04/12 08:39:25;;;;;;;4.45;2.40;;;;;;;;;;5013017;28;20493;-56
2023/04/12 08:41:51;;;;;;;3.63;2.25;;;;;;;;;;5016057;28;20120;-53
2023/04/12 08:44:17;;;;;;;4.75;2.58;;;;;;;;;;4999841;28;20056;-57
2023/04/12 08:46:42;;;;;;;4.00;2.10;;;;;;;;;;5017101;28;20080;-54
2023/04/12 08:49:09;;;;;;;6.68;2.78;;;;;;;;;;5011403;28;20102;-52
2023/04/12 08:51:35;;;;;;;3.53;1.98;;;;;;;;;;5016480;28;20065;-48
2023/04/12 08:54:01;;;;;;;4.35;2.38;;;;;;;;;;5014777;28;20538;-56
2023/04/12 08:56:27;;;;;;;8.82;4.10;;;;;;;;;;4997637;28;20073;-56
2023/04/12 08:58:52;;;;;;;6.22;2.55;;;;;;;;;;5015820;28;20064;-56
2023/04/12 09:01:18;;;;;;;6.90;2.60;;;;;;;;;;5013161;28;20041;-54
2023/04/12 09:03:44;;;;;;;6.25;2.42;;;;;;;;;;5013432;28;20029;-54
2023/04/12 09:06:10;;;;;;;4.72;2.33;;;;;;;;;;5016967;28;20040;-53
2023/04/12 09:08:36;;;;;;;7.80;3.95;;;;;;;;;;5029999;28;20129;-54
2023/04/12 09:11:19;;;;;;;9.00;3.80;;;;;;;;;;5014169;28;20104;-56
2023/04/12 09:13:45;;;;;;;7.82;2.90;;;;;;;;;;5013641;28;20587;-54
2023/04/12 09:16:11;;;;;;;3.80;2.28;;;;;;;;;;5013601;28;20030;-54
2023/04/12 09:18:49;;;;;;;3.88;2.13;;;;;;;;;;5015499;28;20051;-57
2023/04/12 09:21:14;;;;;;;5.80;2.33;;;;;;;;;;5014844;28;20061;-56
2023/04/12 09:23:40;;;;;;;3.60;2.33;;;;;;;;;;5014159;28;20439;-56
2023/04/12 09:26:07;;;;;;;4.10;2.40;;;;;;;;;;5012348;28;20118;-55
2023/04/12 09:28:32;;;;;;;4.93;2.40;;;;;;;;;;5010918;28;20471;-56
2023/04/12 09:30:58;;;;;;;3.53;2.15;;;;;;;;;;5013443;28;20069;-55
2023/04/12 09:33:31;;;;;;;7.13;2.53;;;;;;;;;;5013661;28;20035;-53
2023/04/12 09:36:01;;;;;;;5.78;2.67;;;;;;;;;;5019352;28;20034;-49
2023/04/12 09:38:27;;;;;;;4.63;2.30;;;;;;;;;;5021217;28;20408;-56
2023/04/12 09:40:53;;;;;;;3.85;2.30;;;;;;;;;;5017994;28;20470;-56
2023/04/12 09:43:18;;;;;;;5.00;2.53;;;;;;;;;;5015574;28;20026;-55
2023/04/12 09:45:44;;;;;;;5.85;2.60;;;;;;;;;;5021648;28;20092;-53
2023/04/12 09:48:17;;;;;;;5.10;2.50;;;;;;;;;;5020541;28;20077;-56
2023/04/12 09:50:44;;;;;;;5.10;2.70;;;;;;;;;;5018323;28;20021;-56
2023/04/12 09:53:15;;;;;;;6.43;3.20;;;;;;;;;;5019403;28;20029;-52
2023/04/12 09:55:41;;;;;;;5.82;2.50;;;;;;;;;;5017653;28;20018;-53
2023/04/12 09:58:07;;;;;;;4.75;2.70;;;;;;;;;;5019521;28;20049;-51
2023/04/12 10:00:33;;;;;;;4.43;2.22;;;;;;;;;;5016936;28;20038;-53
2023/04/12 10:02:58;;;;;;;4.85;2.42;;;;;;;;;;5026077;28;20030;-52
2023/04/12 10:05:24;;;;;;;5.30;2.30;;;;;;;;;;5015605;28;20465;-51
2023/04/12 10:07:50;;;;;;;6.75;2.40;;;;;;;;;;5016750;28;20049;-54
2023/04/12 10:10:16;;;;;;;4.30;2.35;;;;;;;;;;5017263;28;20032;-57
2023/04/12 10:12:44;;;;;;;5.25;2.42;;;;;;;;;;5017354;28;20034;-55
2023/04/12 10:15:15;;;;;;;5.32;2.50;;;;;;;;;;5019830;28;20044;-57
2023/04/12 10:17:42;;;;;;;4.10;2.50;;;;;;;;;;5015865;28;20150;-57
2023/04/12 10:20:08;;;;;;;7.35;2.65;;;;;;;;;;5018163;28;20087;-54
2023/04/12 10:22:33;;;;;;;5.32;3.00;;;;;;;;;;5016937;28;20064;-57
2023/04/12 10:24:59;;;;;;;4.80;2.45;;;;;;;;;;5017343;28;20034;-50
2023/04/12 10:27:25;;;;;;;5.63;2.63;;;;;;;;;;5014551;28;20048;-57
2023/04/12 10:29:51;;;;;;;5.22;2.50;;;;;;;;;;5017005;28;20030;-54
2023/04/12 10:32:21;;;;;;;4.90;3.00;;;;;;;;;;5019018;28;20435;-52
2023/04/12 10:34:50;;;;;;;9.00;3.38;;;;;;;;;;5017505;28;20030;-52
2023/04/12 10:37:16;;;;;;;5.97;2.88;;;;;;;;;;5017973;28;20045;-54
2023/04/12 10:39:42;;;;;;;5.65;2.70;;;;;;;;;;5018598;28;20038;-56
2023/04/12 10:42:23;;;;;;;6.80;2.80;;;;;;;;;;5018351;28;20076;-53
2023/04/12 10:44:50;;;;;;;6.90;2.53;;;;;;;;;;5015030;28;20098;-52
2023/04/12 10:47:36;;;;;;;4.32;2.40;;;;;;;;;;5018496;28;20822;-52
2023/04/12 10:50:23;;;;;;;4.00;2.03;;;;;;;;;;5016092;28;20120;-55
2023/04/12 10:53:08;;;;;;;4.60;2.45;;;;;;;;;;5017037;28;20040;-53
2023/04/12 10:55:34;;;;;;;4.07;2.30;;;;;;;;;;5017555;28;20470;-54
2023/04/12 10:57:59;;;;;;;4.70;2.47;;;;;;;;;;5018369;28;20038;-53
2023/04/12 11:00:44;;;;;;;4.43;2.58;;;;;;;;;;5017719;28;20235;-52
2023/04/12 11:03:11;;;;;;;4.47;2.42;;;;;;;;;;5015648;28;20099;-52
2023/04/12 11:05:55;;;;;;;15.77;7.68;;;;;;;;;;5014639;28;20030;-52
2023/04/12 11:08:40;;;;;;;13.50;7.72;;;;;;;;;;5016381;28;20045;-53
2023/04/12 11:11:21;;;;;;;5.70;2.83;;;;;;;;;;5014365;28;20038;-54
2023/04/12 11:13:46;;;;;;;3.88;2.30;;;;;;;;;;5013858;28;20076;-50
2023/04/12 11:16:12;;;;;;;3.47;2.13;;;;;;;;;;5016399;28;20044;-52
2023/04/12 11:18:37;;;;;;;6.45;2.40;;;;;;;;;;5016004;28;20406;-51
2023/04/12 11:21:05;;;;;;;4.43;2.00;;;;;;;;;;5014945;28;20029;-54
2023/04/12 11:23:31;;;;;;;5.10;2.08;;;;;;;;;;5014796;28;20030;-53
2023/04/12 11:25:56;;;;;;;4.78;2.20;;;;;;;;;;5013126;28;20065;-53
2023/04/12 11:28:22;;;;;;;4.00;2.00;;;;;;;;;;5013682;28;20131;-54
2023/04/12 11:30:51;;;;;;;6.05;2.20;;;;;;;;;;5014135;28;20077;-51
2023/04/12 11:33:32;;;;;;;4.05;2.10;;;;;;;;;;5014363;28;20345;-52
2023/04/12 11:35:58;;;;;;;7.43;2.10;;;;;;;;;;5017913;28;20095;-54
2023/04/12 11:38:23;;;;;;;5.25;2.10;;;;;;;;;;5015451;28;20545;-52
2023/04/12 11:40:49;;;;;;;5.45;2.10;;;;;;;;;;5015848;28;20041;-54
2023/04/12 11:43:18;;;;;;;7.43;2.78;;;;;;;;;;5017138;28;20081;-50
2023/04/12 11:45:43;;;;;;;3.65;2.08;;;;;;;;;;5013225;28;20037;-53
2023/04/12 11:48:09;;;;;;;4.38;2.22;;;;;;;;;;5016325;28;20038;-56
2023/04/12 11:50:36;;;;;;;7.05;2.30;;;;;;;;;;5016015;28;20049;-54
2023/04/12 11:53:11;;;;;;;3.92;1.77;;;;;;;;;;5015910;28;20076;-56
2023/04/12 11:55:36;;;;;;;4.22;2.00;;;;;;;;;;5017224;28;20112;-54
2023/04/12 11:58:02;;;;;;;3.45;1.70;;;;;;;;;;5015666;28;20042;-54
2023/04/12 12:00:29;;;;;;;4.38;2.00;;;;;;;;;;5014864;28;20029;-46
2023/04/12 12:02:54;;;;;;;3.63;1.88;;;;;;;;;;5012991;28;20100;-54
2023/04/12 12:05:20;;;;;;;4.60;1.85;;;;;;;;;;5012406;28;20030;-57
2023/04/12 12:07:45;;;;;;;4.32;1.75;;;;;;;;;;5013320;28;20033;-51
2023/04/12 12:10:11;;;;;;;3.15;1.80;;;;;;;;;;5015999;28;20025;-53
2023/04/12 12:12:36;;;;;;;4.32;1.90;;;;;;;;;;5015249;28;20041;-55
2023/04/12 12:15:02;;;;;;;4.03;1.80;;;;;;;;;;5015067;28;20493;-53
2023/04/12 12:17:27;;;;;;;3.92;1.52;;;;;;;;;;5018022;28;20060;-54
2023/04/12 12:19:55;;;;;;;2.33;1.50;;;;;;;;;;5015618;28;20553;-54
2023/04/12 12:22:21;;;;;;;5.03;1.70;;;;;;;;;;5016243;28;20081;-52
2023/04/12 12:24:56;;;;;;;2.53;1.33;;;;;;;;;;5016158;28;20727;-49
2023/04/12 12:27:36;;;;;;;5.30;1.50;;;;;;;;;;5015665;28;20085;-54
2023/04/12 12:30:03;;;;;;;3.83;1.60;;;;;;;;;;5014358;28;20076;-52
2023/04/12 12:32:32;;;;;;;2.35;1.60;;;;;;;;;;5015413;28;20022;-53
2023/04/12 12:34:57;;;;;;;4.00;1.58;;;;;;;;;;5014453;28;20552;-54
2023/04/12 12:37:24;;;;;;;1.48;1.27;;;;;;;;;;5015959;28;20050;-52
2023/04/12 12:40:09;;;;;;;3.22;1.50;;;;;;;;;;5014516;28;20103;-54
2023/04/12 12:42:34;;;;;;;3.10;1.73;;;;;;;;;;5018056;28;20038;-52
2023/04/12 12:45:00;;;;;;;2.75;1.35;;;;;;;;;;5015102;28;20045;-54
2023/04/12 12:47:25;;;;;;;3.97;1.90;;;;;;;;;;5016385;28;20591;-54
2023/04/12 12:49:50;;;;;;;4.45;1.70;;;;;;;;;;5014432;28;20591;-54
2023/04/12 12:52:16;;;;;;;2.53;1.55;;;;;;;;;;5016345;28;20029;-49
2023/04/12 12:54:41;;;;;;;2.20;1.30;;;;;;;;;;5016033;28;20084;-53
2023/04/12 12:57:06;;;;;;;7.90;2.55;;;;;;;;;;5018318;28;20175;-56
2023/04/12 12:59:32;;;;;;;3.25;1.55;;;;;;;;;;5016865;28;20037;-55
2023/04/12 13:01:57;;;;;;;2.45;1.50;;;;;;;;;;5015024;28;20042;-56
2023/04/12 13:04:22;;;;;;;2.47;1.25;;;;;;;;;;5015237;28;20057;-57
2023/04/12 13:06:47;;;;;;;4.13;1.50;;;;;;;;;;5016908;28;20033;-53
2023/04/12 13:09:13;;;;;;;3.35;1.30;;;;;;;;;;5018363;28;20493;-56
2023/04/12 13:11:38;;;;;;;3.40;1.88;;;;;;;;;;5011081;28;20041;-52
2023/04/12 13:14:03;;;;;;;3.13;1.30;;;;;;;;;;5014704;28;20088;-52
2023/04/12 13:16:29;;;;;;;3.72;1.40;;;;;;;;;;5014190;28;20065;-55
2023/04/12 13:18:54;;;;;;;3.38;1.65;;;;;;;;;;5016514;28;20355;-54
2023/04/12 13:21:19;;;;;;;5.68;1.67;;;;;;;;;;5015358;28;20395;-55
2023/04/12 13:23:45;;;;;;;3.33;1.40;;;;;;;;;;5014770;28;20462;-54
2023/04/12 13:26:10;;;;;;;2.63;1.50;;;;;;;;;;5014224;28;20040;-56
2023/04/12 13:28:35;;;;;;;2.83;1.42;;;;;;;;;;5013578;28;20121;-55
2023/04/12 13:31:01;;;;;;;2.13;1.40;;;;;;;;;;5013395;28;20100;-54
2023/04/12 13:33:26;;;;;;;2.10;1.42;;;;;;;;;;5014582;28;20034;-56
2023/04/12 13:35:51;;;;;;;3.65;1.50;;;;;;;;;;5012983;28;20029;-54
2023/04/12 13:38:17;;;;;;;2.95;1.27;;;;;;;;;;5016541;28;20046;-53
2023/04/12 13:40:42;;;;;;;2.95;1.60;;;;;;;;;;5021096;28;20068;-53
2023/04/12 13:43:07;;;;;;;2.58;1.40;;;;;;;;;;5014655;28;20053;-56
2023/04/12 13:45:32;;;;;;;5.07;1.55;;;;;;;;;;5014243;28;20140;-55
2023/04/12 13:47:58;;;;;;;3.05;1.40;;;;;;;;;;5013488;28;20041;-52
2023/04/12 13:50:23;;;;;;;4.40;1.58;;;;;;;;;;5012163;28;20034;-47
2023/04/12 13:52:48;;;;;;;2.20;1.38;;;;;;;;;;5012275;28;20056;-56
2023/04/12 13:55:14;;;;;;;4.15;1.40;;;;;;;;;;5015073;28;20397;-51
2023/04/12 13:57:39;;;;;;;2.70;1.45;;;;;;;;;;5015179;28;20143;-55
2023/04/12 14:00:05;;;;;;;2.15;1.48;;;;;;;;;;5012704;28;20707;-52
2023/04/12 14:02:30;;;;;;;2.25;1.20;;;;;;;;;;5013634;28;20129;-52
2023/04/12 14:04:56;;;;;;;3.97;1.40;;;;;;;;;;5014869;28;20022;-53
2023/04/12 14:07:23;;;;;;;5.40;1.50;;;;;;;;;;5013367;28;20050;-53
2023/04/12 14:09:48;;;;;;;3.75;1.67;;;;;;;;;;5013229;28;20129;-53
2023/04/12 14:12:13;;;;;;;3.58;1.55;;;;;;;;;;5012709;28;20100;-52
2023/04/12 14:14:39;;;;;;;3.70;1.55;;;;;;;;;;5015048;28;20470;-54
2023/04/12 14:17:04;;;;;;;3.28;1.20;;;;;;;;;;5013316;28;20033;-56
2023/04/12 14:19:29;;;;;;;3.83;1.45;;;;;;;;;;5013670;28;20084;-58
2023/04/12 14:21:55;;;;;;;2.75;1.60;;;;;;;;;;5013915;28;20391;-55
2023/04/12 14:24:20;;;;;;;2.38;1.58;;;;;;;;;;5017819;28;20026;-56
2023/04/12 14:26:47;;;;;;;4.93;1.70;;;;;;;;;;5016342;28;20041;-53
2023/04/12 14:29:12;;;;;;;2.67;1.38;;;;;;;;;;5018049;28;20030;-57
2023/04/12 14:31:38;;;;;;;2.33;1.30;;;;;;;;;;5015184;28;20060;-56
2023/04/12 14:34:04;;;;;;;2.35;1.42;;;;;;;;;;5018013;28;20034;-51
2023/04/12 14:36:29;;;;;;;4.53;1.50;;;;;;;;;;5018826;28;20033;-53
2023/04/12 14:38:55;;;;;;;2.00;1.30;;;;;;;;;;5022412;28;20033;-54
2023/04/12 14:41:20;;;;;;;1.63;1.30;;;;;;;;;;5014758;28;20034;-53
2023/04/12 14:43:45;;;;;;;2.22;1.33;;;;;;;;;;5017724;28;20108;-51